M/V Alishan Blossom — 3EVZ4 — position and weather

sailwx.info

Track history (hours):
 
Tides and Currents Weather Stations Pressure Air Temp Water Temp Dewpoint Dewpoint Depression Visibility Wind Speed Wind Dir Waves Ship Positions

M/V Alishan Blossom

Last reported at 2017-Nov-14 12:31 UTC. Time now 2017-Nov-18 19:10 UTC.
Position N 34°59' E 139°30'.

Length 110 m; draft 6.4 m.

Type: Ship. MMSI: 371473000.

Date/timePositionNaut miles runAvg speedWind from/ knotsBaromVisibWave heightAir tempDewpointWater temp
2017-Nov-14 12:31N 34°59' E 139°30'111.4
2017-Nov-14 12:27N 34°59' E 139°31'511.2
2017-Nov-14 12:00N 35°02' E 139°36'611.8
2017-Nov-14 11:30N 35°06' E 139°42'611.9
2017-Nov-14 11:00N 35°11' E 139°46'510.2
2017-Nov-14 10:30N 35°16' E 139°46'510.9
2017-Nov-14 10:01N 35°20' E 139°42'510.5
2017-Nov-14 09:30N 35°26' E 139°43'3 6.3
2017-Nov-14 09:00N 35°28' E 139°42'0 0.6
2017-Nov-14 08:28N 35°28' E 139°41'0 0.1
2017-Nov-14 07:58N 35°28' E 139°41'0 0.0
2017-Nov-14 07:28N 35°28' E 139°41'0 0.1
2017-Nov-14 06:58N 35°28' E 139°41'0 0.1
2017-Nov-14 06:28N 35°28' E 139°41'0 0.1
2017-Nov-14 05:55N 35°28' E 139°41'0 0.0
2017-Nov-14 05:28N 35°28' E 139°41'0 0.1
2017-Nov-14 04:58N 35°28' E 139°41'0 0.1
2017-Nov-14 04:28N 35°28' E 139°41'0 0.1
2017-Nov-14 03:58N 35°28' E 139°41'0 0.1
2017-Nov-14 03:28N 35°28' E 139°41'0 0.1
2017-Nov-14 02:58N 35°28' E 139°41'0 0.0
2017-Nov-14 02:28N 35°28' E 139°41'0 0.0
2017-Nov-14 01:58N 35°28' E 139°41'0 0.0
2017-Nov-14 01:25N 35°28' E 139°41'0 0.0
2017-Nov-14 00:58N 35°28' E 139°41'0 0.1
2017-Nov-14 00:28N 35°28' E 139°41'0 0.0
2017-Nov-13 23:58N 35°28' E 139°41'0 0.1
2017-Nov-13 23:28N 35°28' E 139°41'0 0.0
2017-Nov-13 22:58N 35°28' E 139°41'0 0.0
2017-Nov-13 22:28N 35°28' E 139°41'0 0.0
2017-Nov-13 21:58N 35°28' E 139°41'1 0.1
2017-Nov-13 01:57N 35°27' E 139°42'0 0.0
2017-Nov-13 01:30N 35°27' E 139°42'0 0.0
2017-Nov-13 01:00N 35°27' E 139°42'0 0.0
2017-Nov-13 00:30N 35°27' E 139°42'0 0.0
2017-Nov-13 00:00N 35°27' E 139°42'0 0.0
2017-Nov-12 23:27N 35°27' E 139°42'0 0.1
2017-Nov-12 23:00N 35°27' E 139°42'0 0.3
2017-Nov-12 22:30N 35°27' E 139°42'1 1.9
2017-Nov-12 22:00N 35°26' E 139°43'2 3.9
2017-Nov-12 21:30N 35°26' E 139°45'3 6.4
2017-Nov-12 21:00N 35°24' E 139°48'4 7.8
2017-Nov-12 20:29N 35°22' E 139°53'0 0.7
2017-Nov-12 20:00N 35°22' E 139°53'0 0.0
2017-Nov-12 18:59N 35°22' E 139°53'0 0.1
2017-Nov-12 18:29N 35°22' E 139°53'0 0.1
2017-Nov-12 17:59N 35°22' E 139°53'0 0.1
2017-Nov-12 17:29N 35°22' E 139°53'0 0.0
2017-Nov-12 16:59N 35°22' E 139°53'0 0.1
2017-Nov-12 16:29N 35°22' E 139°53'0 0.0
2017-Nov-12 15:47N 35°22' E 139°53'0 0.0
2017-Nov-12 15:29N 35°22' E 139°53'0 0.1
2017-Nov-12 14:59N 35°22' E 139°53'0 0.0
2017-Nov-12 14:29N 35°22' E 139°53'0 0.0
2017-Nov-12 13:56N 35°22' E 139°53'0 0.1
2017-Nov-12 13:29N 35°22' E 139°53'0 0.0
2017-Nov-12 12:59N 35°22' E 139°53'0 0.1
2017-Nov-12 12:29N 35°22' E 139°53'0 0.1
2017-Nov-12 11:56N 35°22' E 139°53'0 0.1
2017-Nov-12 11:23N 35°22' E 139°53'0 0.1
2017-Nov-12 10:59N 35°22' E 139°53'0 0.0
2017-Nov-12 10:26N 35°22' E 139°53'0 0.1
2017-Nov-12 09:56N 35°22' E 139°53'0 0.1
2017-Nov-12 09:29N 35°22' E 139°53'0 0.1
2017-Nov-12 08:53N 35°22' E 139°53'0 0.0
2017-Nov-12 08:29N 35°22' E 139°53'0 0.1
2017-Nov-12 07:59N 35°22' E 139°53'0 0.0
2017-Nov-12 07:29N 35°22' E 139°53'0 0.1
2017-Nov-12 06:59N 35°22' E 139°53'0 0.1
2017-Nov-12 06:29N 35°22' E 139°53'0 0.0
2017-Nov-12 05:59N 35°22' E 139°53'0 0.1
2017-Nov-12 05:29N 35°22' E 139°53'0 0.0
2017-Nov-12 04:59N 35°22' E 139°53'0 0.0
2017-Nov-12 04:29N 35°22' E 139°53'0 0.0
2017-Nov-12 03:59N 35°22' E 139°53'0 0.0
2017-Nov-12 03:29N 35°22' E 139°53'0 0.0
2017-Nov-12 02:59N 35°22' E 139°53'0 0.1
2017-Nov-12 02:29N 35°22' E 139°53'0 0.1
2017-Nov-12 01:59N 35°22' E 139°53'0 0.1
2017-Nov-12 01:29N 35°22' E 139°53'0 0.0
2017-Nov-12 00:47N 35°22' E 139°53'0 0.0
2017-Nov-12 00:23N 35°22' E 139°53'0 0.0
2017-Nov-11 23:17N 35°22' E 139°53'0 0.2
2017-Nov-11 22:59N 35°22' E 139°53'0 0.0
2017-Nov-11 22:23N 35°22' E 139°53'0 0.0
2017-Nov-11 21:59N 35°22' E 139°53'0 0.0
2017-Nov-11 21:26N 35°22' E 139°53'0 0.1
2017-Nov-11 20:59N 35°22' E 139°53'0 0.0
2017-Nov-11 20:29N 35°22' E 139°53'0 0.0
2017-Nov-11 19:59N 35°22' E 139°53'0 0.0
2017-Nov-11 19:29N 35°22' E 139°53'0 0.0
2017-Nov-11 18:59N 35°22' E 139°53'0 0.0
2017-Nov-11 18:29N 35°22' E 139°53'0 0.1
2017-Nov-11 17:59N 35°22' E 139°53'0 0.1
2017-Nov-11 17:29N 35°22' E 139°53'0 0.1
2017-Nov-11 16:59N 35°22' E 139°53'0 0.0
2017-Nov-11 16:23N 35°22' E 139°53'0 0.0
2017-Nov-11 15:50N 35°22' E 139°53'0 0.0
2017-Nov-11 15:23N 35°22' E 139°53'0 0.0
2017-Nov-11 14:59N 35°22' E 139°53'0 0.0
2017-Nov-11 14:29N 35°22' E 139°53'0 0.1
2017-Nov-11 13:59N 35°22' E 139°53'0 0.1
2017-Nov-11 13:29N 35°22' E 139°53'0 0.1
2017-Nov-11 12:41N 35°22' E 139°53'0 0.0
2017-Nov-11 12:23N 35°22' E 139°53'0 0.0
2017-Nov-11 11:59N 35°22' E 139°53'0 0.1
2017-Nov-11 11:29N 35°22' E 139°53'0 0.0
2017-Nov-11 10:59N 35°22' E 139°53'0 0.0
2017-Nov-11 10:29N 35°22' E 139°53'0 0.0
2017-Nov-11 09:59N 35°22' E 139°53'0 0.0
2017-Nov-11 09:29N 35°22' E 139°53'0 0.1
2017-Nov-11 08:56N 35°22' E 139°53'0 0.1
2017-Nov-11 08:29N 35°22' E 139°53'0 0.0
2017-Nov-11 07:53N 35°22' E 139°53'0 0.0
2017-Nov-11 07:29N 35°22' E 139°53'0 0.0
2017-Nov-11 06:53N 35°22' E 139°53'0 0.0
2017-Nov-11 05:47N 35°22' E 139°53'0 0.0
2017-Nov-11 05:23N 35°22' E 139°53'0 0.1
2017-Nov-11 04:53N 35°22' E 139°53'0 0.0
2017-Nov-11 03:41N 35°22' E 139°53'0 0.2
2017-Nov-11 03:29N 35°22' E 139°53'0 0.0
2017-Nov-11 02:53N 35°22' E 139°53'0 0.1
2017-Nov-11 02:29N 35°22' E 139°53'0 0.0
2017-Nov-11 01:59N 35°22' E 139°53'0 0.1
2017-Nov-11 01:29N 35°22' E 139°53'0 0.0
2017-Nov-11 00:53N 35°22' E 139°53'0 0.0
2017-Nov-11 00:29N 35°22' E 139°53'0 0.0
2017-Nov-10 23:41N 35°22' E 139°53'0 0.0
2017-Nov-10 23:26N 35°22' E 139°53'0 0.1
2017-Nov-10 22:56N 35°22' E 139°53'0 0.1
2017-Nov-10 22:23N 35°22' E 139°53'0 0.1
2017-Nov-10 21:59N 35°22' E 139°53'0 0.0
2017-Nov-10 21:29N 35°22' E 139°53'0 0.1
2017-Nov-10 20:56N 35°22' E 139°53'0 0.1
2017-Nov-10 20:23N 35°22' E 139°53'0 0.0
2017-Nov-10 19:59N 35°22' E 139°53'0 0.0
2017-Nov-10 19:29N 35°22' E 139°53'0 0.1
2017-Nov-10 18:59N 35°22' E 139°53'0 0.1
2017-Nov-10 18:29N 35°22' E 139°53'0 0.1
2017-Nov-10 17:59N 35°22' E 139°53'0 0.0
2017-Nov-10 17:26N 35°22' E 139°53'0 0.1
2017-Nov-10 16:50N 35°22' E 139°53'0 0.1
2017-Nov-10 16:29N 35°22' E 139°53'0 0.0
2017-Nov-10 15:47N 35°22' E 139°53'0 0.0
2017-Nov-10 15:29N 35°22' E 139°53'0 0.0
2017-Nov-10 14:59N 35°22' E 139°53'0 0.0
2017-Nov-10 14:29N 35°22' E 139°53'0 0.0
2017-Nov-10 13:53N 35°22' E 139°53'0 0.0
2017-Nov-10 13:17N 35°22' E 139°53'0 0.0
2017-Nov-10 12:53N 35°22' E 139°53'0 0.1
2017-Nov-10 12:29N 35°22' E 139°53'0 0.0
2017-Nov-10 11:59N 35°22' E 139°53'0 0.1
2017-Nov-10 11:29N 35°22' E 139°53'0 0.0
2017-Nov-10 10:59N 35°22' E 139°53'0 0.0
2017-Nov-10 10:23N 35°22' E 139°53'0 0.0
2017-Nov-10 09:59N 35°22' E 139°53'0 0.0
2017-Nov-10 09:29N 35°22' E 139°53'0 0.1
2017-Nov-10 08:59N 35°22' E 139°53'0 0.1
2017-Nov-10 08:05N 35°22' E 139°53'0 0.0
2017-Nov-10 07:59N 35°22' E 139°53'0 0.1
2017-Nov-10 07:29N 35°22' E 139°53'0 0.0
2017-Nov-10 06:59N 35°22' E 139°53'0 0.1
2017-Nov-10 06:29N 35°22' E 139°53'0 0.1
2017-Nov-10 05:56N 35°22' E 139°53'0 0.0
2017-Nov-10 02:59N 35°22' E 139°53'0 0.1
2017-Nov-10 02:11N 35°22' E 139°53'0 0.0
2017-Nov-10 01:59N 35°22' E 139°53'0 0.0
2017-Nov-10 01:23N 35°22' E 139°53'0 0.0
2017-Nov-10 00:50N 35°22' E 139°53'0 0.0
2017-Nov-10 00:20N 35°22' E 139°53'0 0.1
2017-Nov-09 23:53N 35°22' E 139°53'0 0.0
2017-Nov-09 23:29N 35°22' E 139°53'0 0.1
2017-Nov-09 22:59N 35°22' E 139°53'0 0.1
2017-Nov-09 22:29N 35°22' E 139°53'0 0.1
2017-Nov-09 21:41N 35°22' E 139°53'0 0.2
2017-Nov-09 21:29N 35°22' E 139°53'0 0.0
2017-Nov-09 20:59N 35°22' E 139°53'0 0.1
2017-Nov-09 20:29N 35°22' E 139°53'0 0.4
2017-Nov-09 20:00N 35°22' E 139°53'3 5.5
2017-Nov-09 19:30N 35°23' E 139°50'2 2.8
2017-Nov-09 18:51N 35°25' E 139°51'0 0.2
2017-Nov-09 18:30N 35°25' E 139°51'0 0.0
2017-Nov-09 18:00N 35°25' E 139°51'0 0.0
2017-Nov-09 17:30N 35°25' E 139°51'0 0.0
2017-Nov-09 17:00N 35°25' E 139°51'0 0.0
2017-Nov-09 16:30N 35°25' E 139°51'0 0.0
2017-Nov-09 16:00N 35°25' E 139°51'0 0.0
2017-Nov-09 15:30N 35°25' E 139°51'0 0.0
2017-Nov-09 08:27N 35°25' E 139°51'0 0.0
2017-Nov-09 07:09N 35°25' E 139°51'0 0.0
2017-Nov-09 06:54N 35°25' E 139°51'0 0.0
2017-Nov-09 06:12N 35°25' E 139°51'0 0.0
2017-Nov-09 05:48N 35°25' E 139°51'0 0.0
2017-Nov-09 03:00N 35°25' E 139°51'0 0.0
2017-Nov-09 00:36N 35°25' E 139°51'0 0.0
2017-Nov-09 00:18N 35°25' E 139°51'0 0.0
2017-Nov-08 23:00N 35°25' E 139°51'0 0.0
2017-Nov-08 22:27N 35°25' E 139°51'0 0.1
2017-Nov-08 21:57N 35°25' E 139°51'0 0.1
2017-Nov-08 21:30N 35°25' E 139°51'0 0.0
2017-Nov-08 20:57N 35°25' E 139°51'0 0.2
2017-Nov-08 20:27N 35°25' E 139°51'0 0.1
2017-Nov-08 20:00N 35°25' E 139°51'0 0.1
2017-Nov-08 19:30N 35°25' E 139°51'0 0.0
2017-Nov-08 19:00N 35°25' E 139°51'0 0.1
2017-Nov-08 18:24N 35°25' E 139°51'0 0.0
2017-Nov-08 17:57N 35°25' E 139°51'0 0.0
2017-Nov-08 17:30N 35°25' E 139°51'0 0.1
2017-Nov-08 17:00N 35°25' E 139°51'0 0.0
2017-Nov-08 16:30N 35°25' E 139°51'0 0.0
2017-Nov-08 15:57N 35°25' E 139°51'0 0.1
2017-Nov-08 15:27N 35°25' E 139°51'0 0.0
2017-Nov-08 15:00N 35°25' E 139°51'0 0.0
2017-Nov-08 14:30N 35°25' E 139°51'0 0.0
2017-Nov-08 14:00N 35°25' E 139°51'0 0.1
2017-Nov-08 13:30N 35°25' E 139°51'0 0.0
2017-Nov-08 12:59N 35°25' E 139°51'0 0.1
2017-Nov-08 12:30N 35°25' E 139°51'0 0.0
2017-Nov-08 12:00N 35°25' E 139°51'0 0.0
2017-Nov-08 11:30N 35°25' E 139°51'0 0.0
2017-Nov-08 11:00N 35°25' E 139°51'0 0.0
2017-Nov-08 10:30N 35°25' E 139°51'0 0.0
2017-Nov-08 10:00N 35°25' E 139°51'0 0.0
2017-Nov-08 09:30N 35°25' E 139°51'0 0.0
2017-Nov-08 09:00N 35°25' E 139°51'0 0.1
2017-Nov-08 08:30N 35°25' E 139°51'0 0.1
2017-Nov-08 08:00N 35°25' E 139°51'0 0.0
2017-Nov-08 07:30N 35°25' E 139°51'0 0.0
2017-Nov-08 07:01N 35°25' E 139°51'0 0.0
2017-Nov-08 06:30N 35°25' E 139°51'0 0.1
2017-Nov-08 06:00N 35°25' E 139°51'0 0.1
2017-Nov-08 05:30N 35°25' E 139°51'0 0.0
2017-Nov-08 05:00N 35°25' E 139°51'0 0.0
2017-Nov-08 04:30N 35°25' E 139°51'0 0.0
2017-Nov-08 04:00N 35°25' E 139°51'0 0.0
2017-Nov-08 03:30N 35°25' E 139°51'0 0.0
2017-Nov-08 02:58N 35°25' E 139°51'0 0.1
2017-Nov-08 02:30N 35°25' E 139°51'0 0.0
2017-Nov-08 02:00N 35°25' E 139°51'0 0.0
2017-Nov-08 01:28N 35°25' E 139°51'0 0.0
2017-Nov-08 00:56N 35°25' E 139°51'0 0.0
2017-Nov-08 00:30N 35°25' E 139°51'0 0.0
2017-Nov-08 00:00N 35°25' E 139°51'0 0.0
2017-Nov-07 23:30N 35°25' E 139°51'0 0.0
2017-Nov-07 23:00N 35°25' E 139°51'0 0.0
2017-Nov-07 22:30N 35°25' E 139°51'0 0.0
2017-Nov-07 22:00N 35°25' E 139°51'0 0.0
2017-Nov-07 21:30N 35°25' E 139°51'0 0.0
2017-Nov-07 21:00N 35°25' E 139°51'0 0.0
2017-Nov-07 20:30N 35°25' E 139°51'0 0.0
2017-Nov-07 19:59N 35°25' E 139°51'0 0.0
2017-Nov-07 19:28N 35°25' E 139°51'0 0.0
2017-Nov-07 19:00N 35°25' E 139°51'0 0.0
2017-Nov-07 18:28N 35°25' E 139°51'0 0.0
2017-Nov-07 18:00N 35°25' E 139°51'0 0.0
2017-Nov-07 17:29N 35°25' E 139°51'0 0.0
2017-Nov-07 17:00N 35°25' E 139°51'0 0.0
2017-Nov-07 16:30N 35°25' E 139°51'0 0.0
2017-Nov-07 15:57N 35°25' E 139°51'0 0.0
2017-Nov-07 15:27N 35°25' E 139°51'0 0.0
2017-Nov-07 14:59N 35°25' E 139°51'0 0.1
2017-Nov-07 14:30N 35°25' E 139°51'0 0.1
2017-Nov-07 13:47N 35°25' E 139°51'0 0.1
2017-Nov-07 13:30N 35°25' E 139°51'0 0.0
2017-Nov-07 13:00N 35°25' E 139°51'0 0.0
2017-Nov-07 12:29N 35°25' E 139°51'0 0.0
2017-Nov-07 12:00N 35°25' E 139°51'0 0.0
2017-Nov-07 11:29N 35°25' E 139°51'0 0.0
2017-Nov-07 11:00N 35°25' E 139°51'0 0.0
2017-Nov-07 10:28N 35°25' E 139°51'0 0.0
2017-Nov-07 10:00N 35°25' E 139°51'0 0.0
2017-Nov-07 09:30N 35°25' E 139°51'0 0.0
2017-Nov-07 09:00N 35°25' E 139°51'0 0.0
2017-Nov-07 08:30N 35°25' E 139°51'0 0.1
2017-Nov-07 07:57N 35°25' E 139°51'0 0.1
2017-Nov-07 07:30N 35°25' E 139°51'0 0.0
2017-Nov-07 07:00N 35°25' E 139°51'0 0.0
2017-Nov-07 06:30N 35°25' E 139°51'0 0.0
2017-Nov-07 05:54N 35°25' E 139°51'0 0.0
2017-Nov-07 05:30N 35°25' E 139°51'0 0.0
2017-Nov-07 04:51N 35°25' E 139°51'0 0.3
2017-Nov-07 04:18N 35°25' E 139°51'0 0.2
2017-Nov-07 04:00N 35°25' E 139°51'0 0.0
2017-Nov-07 03:30N 35°25' E 139°51'0 0.0
2017-Nov-07 03:00N 35°25' E 139°51'0 0.0
2017-Nov-07 02:24N 35°25' E 139°51'0 0.0
2017-Nov-07 02:00N 35°25' E 139°51'0 0.0
2017-Nov-07 01:30N 35°25' E 139°51'0 0.0
2017-Nov-07 00:57N 35°25' E 139°51'0 0.0
2017-Nov-07 00:30N 35°25' E 139°51'0 0.0
2017-Nov-06 23:30N 35°25' E 139°51'0 0.1
2017-Nov-06 23:00N 35°25' E 139°51'2 2.6
2017-Nov-06 22:26N 35°25' E 139°49'2 4.4
2017-Nov-06 22:00N 35°24' E 139°47'3 6.4
2017-Nov-06 21:30N 35°22' E 139°45'4 8.7
2017-Nov-06 21:00N 35°17' E 139°45'510.7
2017-Nov-06 20:30N 35°12' E 139°47'  
Track history (hours):
 
Tides and Currents Weather Stations Pressure Air Temp Water Temp Dewpoint Dewpoint Depression Visibility Wind Speed Wind Dir Waves Ship Positions

M/V Alishan Blossom

Last reported at 2017-Nov-14 12:31 UTC. Time now 2017-Nov-18 19:10 UTC.
Position N 34°59' E 139°30'.

Length 110 m; draft 6.4 m.

Type: Ship. MMSI: 371473000.

Date/timePositionNaut miles runAvg speedWind from/ knotsBaromVisibWave heightAir tempDewpointWater temp
2017-Nov-14 12:31N 34°59' E 139°30'111.4
2017-Nov-14 12:27N 34°59' E 139°31'511.2
2017-Nov-14 12:00N 35°02' E 139°36'611.8
2017-Nov-14 11:30N 35°06' E 139°42'611.9
2017-Nov-14 11:00N 35°11' E 139°46'510.2
2017-Nov-14 10:30N 35°16' E 139°46'510.9
2017-Nov-14 10:01N 35°20' E 139°42'510.5
2017-Nov-14 09:30N 35°26' E 139°43'3 6.3
2017-Nov-14 09:00N 35°28' E 139°42'0 0.6
2017-Nov-14 08:28N 35°28' E 139°41'0 0.1
2017-Nov-14 07:58N 35°28' E 139°41'0 0.0
2017-Nov-14 07:28N 35°28' E 139°41'0 0.1
2017-Nov-14 06:58N 35°28' E 139°41'0 0.1
2017-Nov-14 06:28N 35°28' E 139°41'0 0.1
2017-Nov-14 05:55N 35°28' E 139°41'0 0.0
2017-Nov-14 05:28N 35°28' E 139°41'0 0.1
2017-Nov-14 04:58N 35°28' E 139°41'0 0.1
2017-Nov-14 04:28N 35°28' E 139°41'0 0.1
2017-Nov-14 03:58N 35°28' E 139°41'0 0.1
2017-Nov-14 03:28N 35°28' E 139°41'0 0.1
2017-Nov-14 02:58N 35°28' E 139°41'0 0.0
2017-Nov-14 02:28N 35°28' E 139°41'0 0.0
2017-Nov-14 01:58N 35°28' E 139°41'0 0.0
2017-Nov-14 01:25N 35°28' E 139°41'0 0.0
2017-Nov-14 00:58N 35°28' E 139°41'0 0.1
2017-Nov-14 00:28N 35°28' E 139°41'0 0.0
2017-Nov-13 23:58N 35°28' E 139°41'0 0.1
2017-Nov-13 23:28N 35°28' E 139°41'0 0.0
2017-Nov-13 22:58N 35°28' E 139°41'0 0.0
2017-Nov-13 22:28N 35°28' E 139°41'0 0.0
2017-Nov-13 21:58N 35°28' E 139°41'1 0.1
2017-Nov-13 01:57N 35°27' E 139°42'0 0.0
2017-Nov-13 01:30N 35°27' E 139°42'0 0.0
2017-Nov-13 01:00N 35°27' E 139°42'0 0.0
2017-Nov-13 00:30N 35°27' E 139°42'0 0.0
2017-Nov-13 00:00N 35°27' E 139°42'0 0.0
2017-Nov-12 23:27N 35°27' E 139°42'0 0.1
2017-Nov-12 23:00N 35°27' E 139°42'0 0.3
2017-Nov-12 22:30N 35°27' E 139°42'1 1.9
2017-Nov-12 22:00N 35°26' E 139°43'2 3.9
2017-Nov-12 21:30N 35°26' E 139°45'3 6.4
2017-Nov-12 21:00N 35°24' E 139°48'4 7.8
2017-Nov-12 20:29N 35°22' E 139°53'0 0.7
2017-Nov-12 20:00N 35°22' E 139°53'0 0.0
2017-Nov-12 18:59N 35°22' E 139°53'0 0.1
2017-Nov-12 18:29N 35°22' E 139°53'0 0.1
2017-Nov-12 17:59N 35°22' E 139°53'0 0.1
2017-Nov-12 17:29N 35°22' E 139°53'0 0.0
2017-Nov-12 16:59N 35°22' E 139°53'0 0.1
2017-Nov-12 16:29N 35°22' E 139°53'0 0.0
2017-Nov-12 15:47N 35°22' E 139°53'0 0.0
2017-Nov-12 15:29N 35°22' E 139°53'0 0.1
2017-Nov-12 14:59N 35°22' E 139°53'0 0.0
2017-Nov-12 14:29N 35°22' E 139°53'0 0.0
2017-Nov-12 13:56N 35°22' E 139°53'0 0.1
2017-Nov-12 13:29N 35°22' E 139°53'0 0.0
2017-Nov-12 12:59N 35°22' E 139°53'0 0.1
2017-Nov-12 12:29N 35°22' E 139°53'0 0.1
2017-Nov-12 11:56N 35°22' E 139°53'0 0.1
2017-Nov-12 11:23N 35°22' E 139°53'0 0.1
2017-Nov-12 10:59N 35°22' E 139°53'0 0.0
2017-Nov-12 10:26N 35°22' E 139°53'0 0.1
2017-Nov-12 09:56N 35°22' E 139°53'0 0.1
2017-Nov-12 09:29N 35°22' E 139°53'0 0.1
2017-Nov-12 08:53N 35°22' E 139°53'0 0.0
2017-Nov-12 08:29N 35°22' E 139°53'0 0.1
2017-Nov-12 07:59N 35°22' E 139°53'0 0.0
2017-Nov-12 07:29N 35°22' E 139°53'0 0.1
2017-Nov-12 06:59N 35°22' E 139°53'0 0.1
2017-Nov-12 06:29N 35°22' E 139°53'0 0.0
2017-Nov-12 05:59N 35°22' E 139°53'0 0.1
2017-Nov-12 05:29N 35°22' E 139°53'0 0.0
2017-Nov-12 04:59N 35°22' E 139°53'0 0.0
2017-Nov-12 04:29N 35°22' E 139°53'0 0.0
2017-Nov-12 03:59N 35°22' E 139°53'0 0.0
2017-Nov-12 03:29N 35°22' E 139°53'0 0.0
2017-Nov-12 02:59N 35°22' E 139°53'0 0.1
2017-Nov-12 02:29N 35°22' E 139°53'0 0.1
2017-Nov-12 01:59N 35°22' E 139°53'0 0.1
2017-Nov-12 01:29N 35°22' E 139°53'0 0.0
2017-Nov-12 00:47N 35°22' E 139°53'0 0.0
2017-Nov-12 00:23N 35°22' E 139°53'0 0.0
2017-Nov-11 23:17N 35°22' E 139°53'0 0.2
2017-Nov-11 22:59N 35°22' E 139°53'0 0.0
2017-Nov-11 22:23N 35°22' E 139°53'0 0.0
2017-Nov-11 21:59N 35°22' E 139°53'0 0.0
2017-Nov-11 21:26N 35°22' E 139°53'0 0.1
2017-Nov-11 20:59N 35°22' E 139°53'0 0.0
2017-Nov-11 20:29N 35°22' E 139°53'0 0.0
2017-Nov-11 19:59N 35°22' E 139°53'0 0.0
2017-Nov-11 19:29N 35°22' E 139°53'0 0.0
2017-Nov-11 18:59N 35°22' E 139°53'0 0.0
2017-Nov-11 18:29N 35°22' E 139°53'0 0.1
2017-Nov-11 17:59N 35°22' E 139°53'0 0.1
2017-Nov-11 17:29N 35°22' E 139°53'0 0.1
2017-Nov-11 16:59N 35°22' E 139°53'0 0.0
2017-Nov-11 16:23N 35°22' E 139°53'0 0.0
2017-Nov-11 15:50N 35°22' E 139°53'0 0.0
2017-Nov-11 15:23N 35°22' E 139°53'0 0.0
2017-Nov-11 14:59N 35°22' E 139°53'0 0.0
2017-Nov-11 14:29N 35°22' E 139°53'0 0.1
2017-Nov-11 13:59N 35°22' E 139°53'0 0.1
2017-Nov-11 13:29N 35°22' E 139°53'0 0.1
2017-Nov-11 12:41N 35°22' E 139°53'0 0.0
2017-Nov-11 12:23N 35°22' E 139°53'0 0.0
2017-Nov-11 11:59N 35°22' E 139°53'0 0.1
2017-Nov-11 11:29N 35°22' E 139°53'0 0.0
2017-Nov-11 10:59N 35°22' E 139°53'0 0.0
2017-Nov-11 10:29N 35°22' E 139°53'0 0.0
2017-Nov-11 09:59N 35°22' E 139°53'0 0.0
2017-Nov-11 09:29N 35°22' E 139°53'0 0.1
2017-Nov-11 08:56N 35°22' E 139°53'0 0.1
2017-Nov-11 08:29N 35°22' E 139°53'0 0.0
2017-Nov-11 07:53N 35°22' E 139°53'0 0.0
2017-Nov-11 07:29N 35°22' E 139°53'0 0.0
2017-Nov-11 06:53N 35°22' E 139°53'0 0.0
2017-Nov-11 05:47N 35°22' E 139°53'0 0.0
2017-Nov-11 05:23N 35°22' E 139°53'0 0.1
2017-Nov-11 04:53N 35°22' E 139°53'0 0.0
2017-Nov-11 03:41N 35°22' E 139°53'0 0.2
2017-Nov-11 03:29N 35°22' E 139°53'0 0.0
2017-Nov-11 02:53N 35°22' E 139°53'0 0.1
2017-Nov-11 02:29N 35°22' E 139°53'0 0.0
2017-Nov-11 01:59N 35°22' E 139°53'0 0.1
2017-Nov-11 01:29N 35°22' E 139°53'0 0.0
2017-Nov-11 00:53N 35°22' E 139°53'0 0.0
2017-Nov-11 00:29N 35°22' E 139°53'0 0.0
2017-Nov-10 23:41N 35°22' E 139°53'0 0.0
2017-Nov-10 23:26N 35°22' E 139°53'0 0.1
2017-Nov-10 22:56N 35°22' E 139°53'0 0.1
2017-Nov-10 22:23N 35°22' E 139°53'0 0.1
2017-Nov-10 21:59N 35°22' E 139°53'0 0.0
2017-Nov-10 21:29N 35°22' E 139°53'0 0.1
2017-Nov-10 20:56N 35°22' E 139°53'0 0.1
2017-Nov-10 20:23N 35°22' E 139°53'0 0.0
2017-Nov-10 19:59N 35°22' E 139°53'0 0.0
2017-Nov-10 19:29N 35°22' E 139°53'0 0.1
2017-Nov-10 18:59N 35°22' E 139°53'0 0.1
2017-Nov-10 18:29N 35°22' E 139°53'0 0.1
2017-Nov-10 17:59N 35°22' E 139°53'0 0.0
2017-Nov-10 17:26N 35°22' E 139°53'0 0.1
2017-Nov-10 16:50N 35°22' E 139°53'0 0.1
2017-Nov-10 16:29N 35°22' E 139°53'0 0.0
2017-Nov-10 15:47N 35°22' E 139°53'0 0.0
2017-Nov-10 15:29N 35°22' E 139°53'0 0.0
2017-Nov-10 14:59N 35°22' E 139°53'0 0.0
2017-Nov-10 14:29N 35°22' E 139°53'0 0.0
2017-Nov-10 13:53N 35°22' E 139°53'0 0.0
2017-Nov-10 13:17N 35°22' E 139°53'0 0.0
2017-Nov-10 12:53N 35°22' E 139°53'0 0.1
2017-Nov-10 12:29N 35°22' E 139°53'0 0.0
2017-Nov-10 11:59N 35°22' E 139°53'0 0.1
2017-Nov-10 11:29N 35°22' E 139°53'0 0.0
2017-Nov-10 10:59N 35°22' E 139°53'0 0.0
2017-Nov-10 10:23N 35°22' E 139°53'0 0.0
2017-Nov-10 09:59N 35°22' E 139°53'0 0.0
2017-Nov-10 09:29N 35°22' E 139°53'0 0.1
2017-Nov-10 08:59N 35°22' E 139°53'0 0.1
2017-Nov-10 08:05N 35°22' E 139°53'0 0.0
2017-Nov-10 07:59N 35°22' E 139°53'0 0.1
2017-Nov-10 07:29N 35°22' E 139°53'0 0.0
2017-Nov-10 06:59N 35°22' E 139°53'0 0.1
2017-Nov-10 06:29N 35°22' E 139°53'0 0.1
2017-Nov-10 05:56N 35°22' E 139°53'0 0.0
2017-Nov-10 02:59N 35°22' E 139°53'0 0.1
2017-Nov-10 02:11N 35°22' E 139°53'0 0.0
2017-Nov-10 01:59N 35°22' E 139°53'0 0.0
2017-Nov-10 01:23N 35°22' E 139°53'0 0.0
2017-Nov-10 00:50N 35°22' E 139°53'0 0.0
2017-Nov-10 00:20N 35°22' E 139°53'0 0.1
2017-Nov-09 23:53N 35°22' E 139°53'0 0.0
2017-Nov-09 23:29N 35°22' E 139°53'0 0.1
2017-Nov-09 22:59N 35°22' E 139°53'0 0.1
2017-Nov-09 22:29N 35°22' E 139°53'0 0.1
2017-Nov-09 21:41N 35°22' E 139°53'0 0.2
2017-Nov-09 21:29N 35°22' E 139°53'0 0.0
2017-Nov-09 20:59N 35°22' E 139°53'0 0.1
2017-Nov-09 20:29N 35°22' E 139°53'0 0.4
2017-Nov-09 20:00N 35°22' E 139°53'3 5.5
2017-Nov-09 19:30N 35°23' E 139°50'2 2.8
2017-Nov-09 18:51N 35°25' E 139°51'0 0.2
2017-Nov-09 18:30N 35°25' E 139°51'0 0.0
2017-Nov-09 18:00N 35°25' E 139°51'0 0.0
2017-Nov-09 17:30N 35°25' E 139°51'0 0.0
2017-Nov-09 17:00N 35°25' E 139°51'0 0.0
2017-Nov-09 16:30N 35°25' E 139°51'0 0.0
2017-Nov-09 16:00N 35°25' E 139°51'0 0.0
2017-Nov-09 15:30N 35°25' E 139°51'0 0.0
2017-Nov-09 08:27N 35°25' E 139°51'0 0.0
2017-Nov-09 07:09N 35°25' E 139°51'0 0.0
2017-Nov-09 06:54N 35°25' E 139°51'0 0.0
2017-Nov-09 06:12N 35°25' E 139°51'0 0.0
2017-Nov-09 05:48N 35°25' E 139°51'0 0.0
2017-Nov-09 03:00N 35°25' E 139°51'0 0.0
2017-Nov-09 00:36N 35°25' E 139°51'0 0.0
2017-Nov-09 00:18N 35°25' E 139°51'0 0.0
2017-Nov-08 23:00N 35°25' E 139°51'0 0.0
2017-Nov-08 22:27N 35°25' E 139°51'0 0.1
2017-Nov-08 21:57N 35°25' E 139°51'0 0.1
2017-Nov-08 21:30N 35°25' E 139°51'0 0.0
2017-Nov-08 20:57N 35°25' E 139°51'0 0.2
2017-Nov-08 20:27N 35°25' E 139°51'0 0.1
2017-Nov-08 20:00N 35°25' E 139°51'0 0.1
2017-Nov-08 19:30N 35°25' E 139°51'0 0.0
2017-Nov-08 19:00N 35°25' E 139°51'0 0.1
2017-Nov-08 18:24N 35°25' E 139°51'0 0.0
2017-Nov-08 17:57N 35°25' E 139°51'0 0.0
2017-Nov-08 17:30N 35°25' E 139°51'0 0.1
2017-Nov-08 17:00N 35°25' E 139°51'0 0.0
2017-Nov-08 16:30N 35°25' E 139°51'0 0.0
2017-Nov-08 15:57N 35°25' E 139°51'0 0.1
2017-Nov-08 15:27N 35°25' E 139°51'0 0.0
2017-Nov-08 15:00N 35°25' E 139°51'0 0.0
2017-Nov-08 14:30N 35°25' E 139°51'0 0.0
2017-Nov-08 14:00N 35°25' E 139°51'0 0.1
2017-Nov-08 13:30N 35°25' E 139°51'0 0.0
2017-Nov-08 12:59N 35°25' E 139°51'0 0.1
2017-Nov-08 12:30N 35°25' E 139°51'0 0.0
2017-Nov-08 12:00N 35°25' E 139°51'0 0.0
2017-Nov-08 11:30N 35°25' E 139°51'0 0.0
2017-Nov-08 11:00N 35°25' E 139°51'0 0.0
2017-Nov-08 10:30N 35°25' E 139°51'0 0.0
2017-Nov-08 10:00N 35°25' E 139°51'0 0.0
2017-Nov-08 09:30N 35°25' E 139°51'0 0.0
2017-Nov-08 09:00N 35°25' E 139°51'0 0.1
2017-Nov-08 08:30N 35°25' E 139°51'0 0.1
2017-Nov-08 08:00N 35°25' E 139°51'0 0.0
2017-Nov-08 07:30N 35°25' E 139°51'0 0.0
2017-Nov-08 07:01N 35°25' E 139°51'0 0.0
2017-Nov-08 06:30N 35°25' E 139°51'0 0.1
2017-Nov-08 06:00N 35°25' E 139°51'0 0.1
2017-Nov-08 05:30N 35°25' E 139°51'0 0.0
2017-Nov-08 05:00N 35°25' E 139°51'0 0.0
2017-Nov-08 04:30N 35°25' E 139°51'0 0.0
2017-Nov-08 04:00N 35°25' E 139°51'0 0.0
2017-Nov-08 03:30N 35°25' E 139°51'0 0.0
2017-Nov-08 02:58N 35°25' E 139°51'0 0.1
2017-Nov-08 02:30N 35°25' E 139°51'0 0.0
2017-Nov-08 02:00N 35°25' E 139°51'0 0.0
2017-Nov-08 01:28N 35°25' E 139°51'0 0.0
2017-Nov-08 00:56N 35°25' E 139°51'0 0.0
2017-Nov-08 00:30N 35°25' E 139°51'0 0.0
2017-Nov-08 00:00N 35°25' E 139°51'0 0.0
2017-Nov-07 23:30N 35°25' E 139°51'0 0.0
2017-Nov-07 23:00N 35°25' E 139°51'0 0.0
2017-Nov-07 22:30N 35°25' E 139°51'0 0.0
2017-Nov-07 22:00N 35°25' E 139°51'0 0.0
2017-Nov-07 21:30N 35°25' E 139°51'0 0.0
2017-Nov-07 21:00N 35°25' E 139°51'0 0.0
2017-Nov-07 20:30N 35°25' E 139°51'0 0.0
2017-Nov-07 19:59N 35°25' E 139°51'0 0.0
2017-Nov-07 19:28N 35°25' E 139°51'0 0.0
2017-Nov-07 19:00N 35°25' E 139°51'0 0.0
2017-Nov-07 18:28N 35°25' E 139°51'0 0.0
2017-Nov-07 18:00N 35°25' E 139°51'0 0.0
2017-Nov-07 17:29N 35°25' E 139°51'0 0.0
2017-Nov-07 17:00N 35°25' E 139°51'0 0.0
2017-Nov-07 16:30N 35°25' E 139°51'0 0.0
2017-Nov-07 15:57N 35°25' E 139°51'0 0.0
2017-Nov-07 15:27N 35°25' E 139°51'0 0.0
2017-Nov-07 14:59N 35°25' E 139°51'0 0.1
2017-Nov-07 14:30N 35°25' E 139°51'0 0.1
2017-Nov-07 13:47N 35°25' E 139°51'0 0.1
2017-Nov-07 13:30N 35°25' E 139°51'0 0.0
2017-Nov-07 13:00N 35°25' E 139°51'0 0.0
2017-Nov-07 12:29N 35°25' E 139°51'0 0.0
2017-Nov-07 12:00N 35°25' E 139°51'0 0.0
2017-Nov-07 11:29N 35°25' E 139°51'0 0.0
2017-Nov-07 11:00N 35°25' E 139°51'0 0.0
2017-Nov-07 10:28N 35°25' E 139°51'0 0.0
2017-Nov-07 10:00N 35°25' E 139°51'0 0.0
2017-Nov-07 09:30N 35°25' E 139°51'0 0.0
2017-Nov-07 09:00N 35°25' E 139°51'0 0.0
2017-Nov-07 08:30N 35°25' E 139°51'0 0.1
2017-Nov-07 07:57N 35°25' E 139°51'0 0.1
2017-Nov-07 07:30N 35°25' E 139°51'0 0.0
2017-Nov-07 07:00N 35°25' E 139°51'0 0.0
2017-Nov-07 06:30N 35°25' E 139°51'0 0.0
2017-Nov-07 05:54N 35°25' E 139°51'0 0.0
2017-Nov-07 05:30N 35°25' E 139°51'0 0.0
2017-Nov-07 04:51N 35°25' E 139°51'0 0.3
2017-Nov-07 04:18N 35°25' E 139°51'0 0.2
2017-Nov-07 04:00N 35°25' E 139°51'0 0.0
2017-Nov-07 03:30N 35°25' E 139°51'0 0.0
2017-Nov-07 03:00N 35°25' E 139°51'0 0.0
2017-Nov-07 02:24N 35°25' E 139°51'0 0.0
2017-Nov-07 02:00N 35°25' E 139°51'0 0.0
2017-Nov-07 01:30N 35°25' E 139°51'0 0.0
2017-Nov-07 00:57N 35°25' E 139°51'0 0.0
2017-Nov-07 00:30N 35°25' E 139°51'0 0.0
2017-Nov-06 23:30N 35°25' E 139°51'0 0.1
2017-Nov-06 23:00N 35°25' E 139°51'2 2.6
2017-Nov-06 22:26N 35°25' E 139°49'2 4.4
2017-Nov-06 22:00N 35°24' E 139°47'3 6.4
2017-Nov-06 21:30N 35°22' E 139°45'4 8.7
2017-Nov-06 21:00N 35°17' E 139°45'510.7
2017-Nov-06 20:30N 35°12' E 139°47'  

Dump ship's entire track history